sensor_id;sensor_type;location;lat;lon;timestamp;temperature;humidity
1049;DHT22;513;51.444;7.196;2022-11-20T00:00:16;-0.80;38.00
1049;DHT22;513;51.444;7.196;2022-11-20T00:02:42;-0.70;43.00
1049;DHT22;513;51.444;7.196;2022-11-20T00:05:09;-0.70;46.10
1049;DHT22;513;51.444;7.196;2022-11-20T00:07:36;-0.70;53.30
1049;DHT22;513;51.444;7.196;2022-11-20T00:10:03;-0.60;56.90
1049;DHT22;513;51.444;7.196;2022-11-20T00:12:31;-0.50;65.80
1049;DHT22;513;51.444;7.196;2022-11-20T00:14:57;-0.50;74.00
1049;DHT22;513;51.444;7.196;2022-11-20T00:17:24;-0.40;81.90
1049;DHT22;513;51.444;7.196;2022-11-20T00:19:51;-0.30;86.80
1049;DHT22;513;51.444;7.196;2022-11-20T00:22:17;-0.30;92.50
1049;DHT22;513;51.444;7.196;2022-11-20T00:24:44;-0.30;94.70
1049;DHT22;513;51.444;7.196;2022-11-20T00:27:11;-0.20;99.90
1049;DHT22;513;51.444;7.196;2022-11-20T00:29:39;-0.20;99.90
1049;DHT22;513;51.444;7.196;2022-11-20T00:32:05;-0.10;99.90
1049;DHT22;513;51.444;7.196;2022-11-20T00:34:32;0.00;99.90
1049;DHT22;513;51.444;7.196;2022-11-20T00:36:59;-0.10;99.90
1049;DHT22;513;51.444;7.196;2022-11-20T00:39:25;-0.20;99.90
1049;DHT22;513;51.444;7.196;2022-11-20T00:41:52;-0.20;99.90
1049;DHT22;513;51.444;7.196;2022-11-20T00:44:18;0.10;99.90
1049;DHT22;513;51.444;7.196;2022-11-20T00:46:46;0.00;99.90
1049;DHT22;513;51.444;7.196;2022-11-20T00:49:13;-0.20;99.90
1049;DHT22;513;51.444;7.196;2022-11-20T00:51:40;-0.10;99.90
1049;DHT22;513;51.444;7.196;2022-11-20T00:54:07;0.00;99.90
1049;DHT22;513;51.444;7.196;2022-11-20T00:56:33;0.10;99.90
1049;DHT22;513;51.444;7.196;2022-11-20T00:59:00;0.30;99.90
1049;DHT22;513;51.444;7.196;2022-11-20T01:01:27;0.30;99.90
1049;DHT22;513;51.444;7.196;2022-11-20T01:03:58;0.40;99.90
1049;DHT22;513;51.444;7.196;2022-11-20T01:06:28;0.40;99.90
1049;DHT22;513;51.444;7.196;2022-11-20T01:08:57;0.50;99.90
1049;DHT22;513;51.444;7.196;2022-11-20T01:11:26;0.50;99.90
1049;DHT22;513;51.444;7.196;2022-11-20T01:13:54;0.40;99.90
1049;DHT22;513;51.444;7.196;2022-11-20T01:16:23;0.40;99.90
1049;DHT22;513;51.444;7.196;2022-11-20T01:18:51;0.50;99.90
1049;DHT22;513;51.444;7.196;2022-11-20T01:21:22;0.50;99.90
1049;DHT22;513;51.444;7.196;2022-11-20T01:23:49;0.50;99.90
1049;DHT22;513;51.444;7.196;2022-11-20T01:26:19;0.50;99.90
1049;DHT22;513;51.444;7.196;2022-11-20T01:28:46;0.50;99.90
1049;DHT22;513;51.444;7.196;2022-11-20T01:31:15;0.50;99.90
1049;DHT22;513;51.444;7.196;2022-11-20T01:33:43;0.60;99.90
1049;DHT22;513;51.444;7.196;2022-11-20T01:36:10;0.60;99.90
1049;DHT22;513;51.444;7.196;2022-11-20T01:38:39;0.40;99.90
1049;DHT22;513;51.444;7.196;2022-11-20T01:41:07;0.40;99.90
1049;DHT22;513;51.444;7.196;2022-11-20T01:43:34;0.50;99.90
1049;DHT22;513;51.444;7.196;2022-11-20T01:46:14;0.60;99.90
1049;DHT22;513;51.444;7.196;2022-11-20T01:48:50;0.70;99.90
1049;DHT22;513;51.444;7.196;2022-11-20T01:51:22;0.70;99.90
1049;DHT22;513;51.444;7.196;2022-11-20T01:53:52;0.60;99.90
1049;DHT22;513;51.444;7.196;2022-11-20T01:56:20;0.70;99.90
1049;DHT22;513;51.444;7.196;2022-11-20T01:58:49;0.60;99.90
1049;DHT22;513;51.444;7.196;2022-11-20T02:01:17;0.50;99.90
1049;DHT22;513;51.444;7.196;2022-11-20T02:03:44;0.60;99.90
1049;DHT22;513;51.444;7.196;2022-11-20T02:06:14;0.70;99.90
1049;DHT22;513;51.444;7.196;2022-11-20T02:08:43;0.60;99.90
1049;DHT22;513;51.444;7.196;2022-11-20T02:11:11;0.70;99.90
1049;DHT22;513;51.444;7.196;2022-11-20T02:13:39;0.90;99.90
1049;DHT22;513;51.444;7.196;2022-11-20T02:16:16;1.00;99.90
1049;DHT22;513;51.444;7.196;2022-11-20T02:18:45;1.10;99.90
1049;DHT22;513;51.444;7.196;2022-11-20T02:21:25;1.20;99.90
1049;DHT22;513;51.444;7.196;2022-11-20T02:24:02;1.30;99.90
1049;DHT22;513;51.444;7.196;2022-11-20T02:26:32;1.30;99.90
1049;DHT22;513;51.444;7.196;2022-11-20T02:29:00;1.40;99.90
1049;DHT22;513;51.444;7.196;2022-11-20T02:31:28;1.50;99.90
1049;DHT22;513;51.444;7.196;2022-11-20T02:33:55;1.50;99.90
1049;DHT22;513;51.444;7.196;2022-11-20T02:36:24;1.60;99.90
1049;DHT22;513;51.444;7.196;2022-11-20T02:38:52;1.60;99.90
1049;DHT22;513;51.444;7.196;2022-11-20T02:41:21;1.60;99.90
1049;DHT22;513;51.444;7.196;2022-11-20T02:43:47;1.50;99.90
1049;DHT22;513;51.444;7.196;2022-11-20T02:46:14;1.50;99.90
1049;DHT22;513;51.444;7.196;2022-11-20T02:48:41;1.60;99.90
1049;DHT22;513;51.444;7.196;2022-11-20T02:51:07;1.50;99.90
1049;DHT22;513;51.444;7.196;2022-11-20T02:53:34;1.50;99.90
1049;DHT22;513;51.444;7.196;2022-11-20T02:56:01;1.50;99.90
1049;DHT22;513;51.444;7.196;2022-11-20T02:58:29;1.50;99.90
1049;DHT22;513;51.444;7.196;2022-11-20T03:00:55;1.50;99.90
1049;DHT22;513;51.444;7.196;2022-11-20T03:03:22;1.50;99.90
1049;DHT22;513;51.444;7.196;2022-11-20T03:05:49;1.50;99.90
1049;DHT22;513;51.444;7.196;2022-11-20T03:08:15;1.60;99.90
1049;DHT22;513;51.444;7.196;2022-11-20T03:10:42;1.70;99.90
1049;DHT22;513;51.444;7.196;2022-11-20T03:13:09;1.80;99.90
1049;DHT22;513;51.444;7.196;2022-11-20T03:15:37;1.70;99.90
1049;DHT22;513;51.444;7.196;2022-11-20T03:18:04;1.50;99.90
1049;DHT22;513;51.444;7.196;2022-11-20T03:20:32;1.60;99.90
1049;DHT22;513;51.444;7.196;2022-11-20T03:22:59;1.70;99.90
1049;DHT22;513;51.444;7.196;2022-11-20T03:25:26;1.80;99.90
1049;DHT22;513;51.444;7.196;2022-11-20T03:27:54;1.80;99.90
1049;DHT22;513;51.444;7.196;2022-11-20T03:30:20;1.80;99.90
1049;DHT22;513;51.444;7.196;2022-11-20T03:32:49;1.90;99.90
1049;DHT22;513;51.444;7.196;2022-11-20T03:35:18;2.00;99.90
1049;DHT22;513;51.444;7.196;2022-11-20T03:37:45;2.10;99.90
1049;DHT22;513;51.444;7.196;2022-11-20T03:40:12;2.10;99.90
1049;DHT22;513;51.444;7.196;2022-11-20T03:42:39;1.90;99.90
1049;DHT22;513;51.444;7.196;2022-11-20T03:45:12;2.00;99.90
1049;DHT22;513;51.444;7.196;2022-11-20T03:47:39;2.10;99.90
1049;DHT22;513;51.444;7.196;2022-11-20T03:50:08;2.10;99.90
1049;DHT22;513;51.444;7.196;2022-11-20T03:52:35;2.20;99.90
1049;DHT22;513;51.444;7.196;2022-11-20T03:55:02;2.30;99.90
1049;DHT22;513;51.444;7.196;2022-11-20T03:57:28;2.30;99.90
1049;DHT22;513;51.444;7.196;2022-11-20T03:59:55;2.40;99.90
1049;DHT22;513;51.444;7.196;2022-11-20T04:02:22;2.40;99.90
1049;DHT22;513;51.444;7.196;2022-11-20T04:04:48;2.40;99.90
1049;DHT22;513;51.444;7.196;2022-11-20T04:07:16;2.40;99.90
1049;DHT22;513;51.444;7.196;2022-11-20T04:09:43;2.40;99.90
1049;DHT22;513;51.444;7.196;2022-11-20T04:12:10;2.50;99.90
1049;DHT22;513;51.444;7.196;2022-11-20T04:14:36;2.50;99.90
1049;DHT22;513;51.444;7.196;2022-11-20T04:17:04;2.60;99.90
1049;DHT22;513;51.444;7.196;2022-11-20T04:19:30;2.60;99.90
1049;DHT22;513;51.444;7.196;2022-11-20T04:21:57;2.40;99.90
1049;DHT22;513;51.444;7.196;2022-11-20T04:24:26;2.40;99.90
1049;DHT22;513;51.444;7.196;2022-11-20T04:26:53;2.30;99.90
1049;DHT22;513;51.444;7.196;2022-11-20T04:29:19;2.30;99.90
1049;DHT22;513;51.444;7.196;2022-11-20T04:31:46;2.10;99.90
1049;DHT22;513;51.444;7.196;2022-11-20T04:34:13;2.00;99.90
1049;DHT22;513;51.444;7.196;2022-11-20T04:36:39;2.00;99.90
1049;DHT22;513;51.444;7.196;2022-11-20T04:39:06;2.10;99.90
1049;DHT22;513;51.444;7.196;2022-11-20T04:41:35;2.20;99.90
1049;DHT22;513;51.444;7.196;2022-11-20T04:44:03;2.30;99.90
1049;DHT22;513;51.444;7.196;2022-11-20T04:46:32;2.30;99.90
1049;DHT22;513;51.444;7.196;2022-11-20T04:48:59;2.40;99.90
1049;DHT22;513;51.444;7.196;2022-11-20T04:51:26;2.40;99.90
1049;DHT22;513;51.444;7.196;2022-11-20T04:53:53;2.30;99.90
1049;DHT22;513;51.444;7.196;2022-11-20T04:56:20;2.30;99.90
1049;DHT22;513;51.444;7.196;2022-11-20T04:58:48;2.40;99.90
1049;DHT22;513;51.444;7.196;2022-11-20T05:01:16;2.40;99.90
1049;DHT22;513;51.444;7.196;2022-11-20T05:03:44;2.30;99.90
1049;DHT22;513;51.444;7.196;2022-11-20T05:06:12;2.30;99.90
1049;DHT22;513;51.444;7.196;2022-11-20T05:08:39;2.30;99.90
1049;DHT22;513;51.444;7.196;2022-11-20T05:11:08;2.20;99.90
1049;DHT22;513;51.444;7.196;2022-11-20T05:13:35;2.20;99.90
1049;DHT22;513;51.444;7.196;2022-11-20T05:16:04;2.20;99.90
1049;DHT22;513;51.444;7.196;2022-11-20T05:18:31;2.30;99.90
1049;DHT22;513;51.444;7.196;2022-11-20T05:20:58;2.30;99.30
1049;DHT22;513;51.444;7.196;2022-11-20T05:23:25;2.30;98.10
1049;DHT22;513;51.444;7.196;2022-11-20T05:25:52;2.30;98.30
1049;DHT22;513;51.444;7.196;2022-11-20T05:28:20;2.30;98.00
1049;DHT22;513;51.444;7.196;2022-11-20T05:30:46;2.30;98.50
1049;DHT22;513;51.444;7.196;2022-11-20T05:33:15;2.30;97.10
1049;DHT22;513;51.444;7.196;2022-11-20T05:35:42;2.40;94.60
1049;DHT22;513;51.444;7.196;2022-11-20T05:38:08;2.40;93.90
1049;DHT22;513;51.444;7.196;2022-11-20T05:40:35;2.40;92.90
1049;DHT22;513;51.444;7.196;2022-11-20T05:43:02;2.40;90.90
1049;DHT22;513;51.444;7.196;2022-11-20T05:45:29;2.20;93.20
1049;DHT22;513;51.444;7.196;2022-11-20T05:47:58;2.20;95.00
1049;DHT22;513;51.444;7.196;2022-11-20T05:50:27;2.20;97.80
1049;DHT22;513;51.444;7.196;2022-11-20T05:52:54;2.30;99.20
1049;DHT22;513;51.444;7.196;2022-11-20T05:55:21;2.30;98.70
1049;DHT22;513;51.444;7.196;2022-11-20T05:57:47;2.20;98.90
1049;DHT22;513;51.444;7.196;2022-11-20T06:00:15;2.20;99.10
1049;DHT22;513;51.444;7.196;2022-11-20T06:02:41;2.20;96.60
1049;DHT22;513;51.444;7.196;2022-11-20T06:05:08;2.20;94.90
1049;DHT22;513;51.444;7.196;2022-11-20T06:07:36;2.10;92.80
1049;DHT22;513;51.444;7.196;2022-11-20T06:10:03;2.00;92.40
1049;DHT22;513;51.444;7.196;2022-11-20T06:12:31;2.10;91.70
1049;DHT22;513;51.444;7.196;2022-11-20T06:14:58;2.10;86.30
1049;DHT22;513;51.444;7.196;2022-11-20T06:17:25;2.10;82.70
1049;DHT22;513;51.444;7.196;2022-11-20T06:19:52;2.10;81.20
1049;DHT22;513;51.444;7.196;2022-11-20T06:22:18;2.00;78.00
1049;DHT22;513;51.444;7.196;2022-11-20T06:24:47;2.00;79.60
1049;DHT22;513;51.444;7.196;2022-11-20T06:27:13;2.10;79.00
1049;DHT22;513;51.444;7.196;2022-11-20T06:29:40;2.10;73.00
1049;DHT22;513;51.444;7.196;2022-11-20T06:32:06;2.10;70.00
1049;DHT22;513;51.444;7.196;2022-11-20T06:34:33;2.20;69.40
1049;DHT22;513;51.444;7.196;2022-11-20T06:37:00;2.20;69.00
1049;DHT22;513;51.444;7.196;2022-11-20T06:39:26;2.20;66.80
1049;DHT22;513;51.444;7.196;2022-11-20T06:41:54;2.10;63.50
1049;DHT22;513;51.444;7.196;2022-11-20T06:44:21;2.10;57.40
1049;DHT22;513;51.444;7.196;2022-11-20T06:46:48;2.10;55.00
1049;DHT22;513;51.444;7.196;2022-11-20T06:49:14;2.00;55.30
1049;DHT22;513;51.444;7.196;2022-11-20T06:51:41;2.00;56.50
1049;DHT22;513;51.444;7.196;2022-11-20T06:54:08;2.00;57.60
1049;DHT22;513;51.444;7.196;2022-11-20T06:56:34;2.00;52.80
1049;DHT22;513;51.444;7.196;2022-11-20T06:59:05;1.90;50.00
1049;DHT22;513;51.444;7.196;2022-11-20T07:01:32;1.90;46.70
1049;DHT22;513;51.444;7.196;2022-11-20T07:03:59;1.90;46.10
1049;DHT22;513;51.444;7.196;2022-11-20T07:06:25;1.80;45.10
1049;DHT22;513;51.444;7.196;2022-11-20T07:08:52;1.80;44.00
1049;DHT22;513;51.444;7.196;2022-11-20T07:11:19;1.80;43.40
1049;DHT22;513;51.444;7.196;2022-11-20T07:13:46;1.80;41.40
1049;DHT22;513;51.444;7.196;2022-11-20T07:16:14;1.80;40.70
1049;DHT22;513;51.444;7.196;2022-11-20T07:18:40;1.80;38.10
1049;DHT22;513;51.444;7.196;2022-11-20T07:21:09;1.80;33.50
1049;DHT22;513;51.444;7.196;2022-11-20T07:23:36;1.80;31.60
1049;DHT22;513;51.444;7.196;2022-11-20T07:26:03;1.80;30.20
1049;DHT22;513;51.444;7.196;2022-11-20T07:28:30;1.70;28.80
1049;DHT22;513;51.444;7.196;2022-11-20T07:30:57;1.70;27.90
1049;DHT22;513;51.444;7.196;2022-11-20T07:33:25;1.70;26.20
1049;DHT22;513;51.444;7.196;2022-11-20T07:35:52;1.70;24.80
1049;DHT22;513;51.444;7.196;2022-11-20T07:38:18;1.60;22.00
1049;DHT22;513;51.444;7.196;2022-11-20T07:40:45;1.60;20.60
1049;DHT22;513;51.444;7.196;2022-11-20T07:43:12;1.60;18.80
1049;DHT22;513;51.444;7.196;2022-11-20T07:45:38;1.60;17.70
1049;DHT22;513;51.444;7.196;2022-11-20T07:48:05;1.60;16.40
1049;DHT22;513;51.444;7.196;2022-11-20T07:50:33;1.50;17.30
1049;DHT22;513;51.444;7.196;2022-11-20T07:53:01;1.60;20.70
1049;DHT22;513;51.444;7.196;2022-11-20T07:55:29;1.60;22.10
1049;DHT22;513;51.444;7.196;2022-11-20T07:57:55;1.60;23.60
1049;DHT22;513;51.444;7.196;2022-11-20T08:00:22;1.70;25.50
1049;DHT22;513;51.444;7.196;2022-11-20T08:02:49;1.70;27.30
1049;DHT22;513;51.444;7.196;2022-11-20T08:05:16;1.80;29.00
1049;DHT22;513;51.444;7.196;2022-11-20T08:07:44;1.80;26.40
1049;DHT22;513;51.444;7.196;2022-11-20T08:10:13;1.80;27.30
1049;DHT22;513;51.444;7.196;2022-11-20T08:12:44;1.90;28.10
1049;DHT22;513;51.444;7.196;2022-11-20T08:15:28;2.00;28.60
1049;DHT22;513;51.444;7.196;2022-11-20T08:18:00;2.10;22.90
1049;DHT22;513;51.444;7.196;2022-11-20T08:20:27;2.10;22.60
1049;DHT22;513;51.444;7.196;2022-11-20T08:22:59;2.20;20.70
1049;DHT22;513;51.444;7.196;2022-11-20T08:25:27;2.20;19.50
1049;DHT22;513;51.444;7.196;2022-11-20T08:27:56;2.30;19.90
1049;DHT22;513;51.444;7.196;2022-11-20T08:30:22;2.30;21.50
1049;DHT22;513;51.444;7.196;2022-11-20T08:32:49;2.40;19.70
1049;DHT22;513;51.444;7.196;2022-11-20T08:35:16;2.40;17.40
1049;DHT22;513;51.444;7.196;2022-11-20T08:37:45;2.30;16.10
1049;DHT22;513;51.444;7.196;2022-11-20T08:40:14;2.40;20.40
1049;DHT22;513;51.444;7.196;2022-11-20T08:42:46;2.40;24.30
1049;DHT22;513;51.444;7.196;2022-11-20T08:45:13;2.50;25.30
1049;DHT22;513;51.444;7.196;2022-11-20T08:47:40;2.60;25.50
1049;DHT22;513;51.444;7.196;2022-11-20T08:50:08;2.70;22.50
1049;DHT22;513;51.444;7.196;2022-11-20T08:52:35;2.80;18.40
1049;DHT22;513;51.444;7.196;2022-11-20T08:55:01;2.70;11.10
1049;DHT22;513;51.444;7.196;2022-11-20T08:57:31;2.70;2.80
1049;DHT22;513;51.444;7.196;2022-11-20T08:59:58;2.80;1.00
1049;DHT22;513;51.444;7.196;2022-11-20T09:02:25;2.70;1.00
1049;DHT22;513;51.444;7.196;2022-11-20T09:04:52;2.80;1.00
1049;DHT22;513;51.444;7.196;2022-11-20T09:07:19;2.90;1.00
1049;DHT22;513;51.444;7.196;2022-11-20T09:09:46;2.90;1.00
1049;DHT22;513;51.444;7.196;2022-11-20T09:12:13;2.90;1.00
1049;DHT22;513;51.444;7.196;2022-11-20T09:14:41;3.00;1.00
1049;DHT22;513;51.444;7.196;2022-11-20T09:17:09;2.90;1.00
1049;DHT22;513;51.444;7.196;2022-11-20T09:19:38;3.00;1.00
1049;DHT22;513;51.444;7.196;2022-11-20T09:22:05;3.10;1.00
1049;DHT22;513;51.444;7.196;2022-11-20T09:24:32;3.10;1.00
1049;DHT22;513;51.444;7.196;2022-11-20T09:27:01;3.30;1.00
1049;DHT22;513;51.444;7.196;2022-11-20T09:29:28;3.40;1.00
1049;DHT22;513;51.444;7.196;2022-11-20T09:31:56;3.30;1.00
1049;DHT22;513;51.444;7.196;2022-11-20T09:34:23;3.40;1.00
1049;DHT22;513;51.444;7.196;2022-11-20T09:36:49;3.40;1.00
1049;DHT22;513;51.444;7.196;2022-11-20T09:39:16;3.40;1.00
1049;DHT22;513;51.444;7.196;2022-11-20T09:45:05;3.60;1.00
1049;DHT22;513;51.444;7.196;2022-11-20T09:47:42;3.70;1.00
1049;DHT22;513;51.444;7.196;2022-11-20T09:50:22;3.50;1.00
1049;DHT22;513;51.444;7.196;2022-11-20T09:53:04;3.30;1.00
1049;DHT22;513;51.444;7.196;2022-11-20T09:55:34;3.50;1.00
1049;DHT22;513;51.444;7.196;2022-11-20T09:58:06;3.70;1.00
1049;DHT22;513;51.444;7.196;2022-11-20T10:00:34;3.80;1.00
1049;DHT22;513;51.444;7.196;2022-11-20T10:03:10;3.90;1.00
1049;DHT22;513;51.444;7.196;2022-11-20T10:05:42;3.80;1.00
1049;DHT22;513;51.444;7.196;2022-11-20T10:08:15;3.80;1.00
1049;DHT22;513;51.444;7.196;2022-11-20T10:10:46;4.00;1.00
1049;DHT22;513;51.444;7.196;2022-11-20T10:13:21;4.10;1.00
1049;DHT22;513;51.444;7.196;2022-11-20T10:16:00;4.10;1.00
1049;DHT22;513;51.444;7.196;2022-11-20T10:18:40;3.90;1.00
1049;DHT22;513;51.444;7.196;2022-11-20T10:21:15;3.90;1.00
1049;DHT22;513;51.444;7.196;2022-11-20T10:26:43;4.00;1.00
1049;DHT22;513;51.444;7.196;2022-11-20T10:29:13;3.80;1.00
1049;DHT22;513;51.444;7.196;2022-11-20T10:31:44;4.00;1.00
1049;DHT22;513;51.444;7.196;2022-11-20T10:34:20;4.20;1.00
1049;DHT22;513;51.444;7.196;2022-11-20T10:36:52;4.30;1.00
1049;DHT22;513;51.444;7.196;2022-11-20T10:39:28;4.50;1.00
1049;DHT22;513;51.444;7.196;2022-11-20T10:41:55;4.20;1.00
1049;DHT22;513;51.444;7.196;2022-11-20T10:44:26;4.30;1.00
1049;DHT22;513;51.444;7.196;2022-11-20T10:47:18;4.40;1.00
1049;DHT22;513;51.444;7.196;2022-11-20T10:49:48;4.40;1.00
1049;DHT22;513;51.444;7.196;2022-11-20T10:52:23;4.40;1.00
1049;DHT22;513;51.444;7.196;2022-11-20T10:54:57;4.60;1.00
1049;DHT22;513;51.444;7.196;2022-11-20T10:57:35;4.40;1.00
1049;DHT22;513;51.444;7.196;2022-11-20T11:00:11;4.40;1.00
1049;DHT22;513;51.444;7.196;2022-11-20T11:02:43;4.40;1.00
1049;DHT22;513;51.444;7.196;2022-11-20T11:05:22;4.30;1.00
1049;DHT22;513;51.444;7.196;2022-11-20T11:07:50;4.50;1.00
1049;DHT22;513;51.444;7.196;2022-11-20T11:10:22;4.30;1.00
1049;DHT22;513;51.444;7.196;2022-11-20T11:12:50;4.50;1.00
1049;DHT22;513;51.444;7.196;2022-11-20T11:15:26;4.70;99.90
1049;DHT22;513;51.444;7.196;2022-11-20T11:17:53;4.80;99.90
1049;DHT22;513;51.444;7.196;2022-11-20T11:20:22;4.80;99.90
1049;DHT22;513;51.444;7.196;2022-11-20T11:22:51;4.90;1.00
1049;DHT22;513;51.444;7.196;2022-11-20T11:25:24;5.10;99.90
1049;DHT22;513;51.444;7.196;2022-11-20T11:27:52;4.90;99.90
1049;DHT22;513;51.444;7.196;2022-11-20T11:30:20;4.60;99.90
1049;DHT22;513;51.444;7.196;2022-11-20T11:32:47;4.60;99.90
1049;DHT22;513;51.444;7.196;2022-11-20T11:35:27;4.60;99.90
1049;DHT22;513;51.444;7.196;2022-11-20T11:38:02;4.50;1.00
1049;DHT22;513;51.444;7.196;2022-11-20T11:40:31;4.40;1.00
1049;DHT22;513;51.444;7.196;2022-11-20T11:43:01;4.50;1.00
1049;DHT22;513;51.444;7.196;2022-11-20T11:45:28;4.60;1.00
1049;DHT22;513;51.444;7.196;2022-11-20T11:47:56;4.80;1.00
1049;DHT22;513;51.444;7.196;2022-11-20T11:50:25;4.70;99.90
1049;DHT22;513;51.444;7.196;2022-11-20T11:53:07;4.60;1.00
1049;DHT22;513;51.444;7.196;2022-11-20T11:55:38;4.50;99.90
1049;DHT22;513;51.444;7.196;2022-11-20T11:58:16;4.70;1.00
1049;DHT22;513;51.444;7.196;2022-11-20T12:00:51;4.80;1.00
1049;DHT22;513;51.444;7.196;2022-11-20T12:03:25;4.90;1.00
1049;DHT22;513;51.444;7.196;2022-11-20T12:05:57;5.10;1.00
1049;DHT22;513;51.444;7.196;2022-11-20T12:08:27;5.30;99.90
1049;DHT22;513;51.444;7.196;2022-11-20T12:10:58;5.10;99.90
1049;DHT22;513;51.444;7.196;2022-11-20T12:13:40;5.10;99.90
1049;DHT22;513;51.444;7.196;2022-11-20T12:16:12;5.00;99.90
1049;DHT22;513;51.444;7.196;2022-11-20T12:18:39;5.10;1.00
1049;DHT22;513;51.444;7.196;2022-11-20T12:21:17;5.40;1.00
1049;DHT22;513;51.444;7.196;2022-11-20T12:23:59;5.60;1.00
1049;DHT22;513;51.444;7.196;2022-11-20T12:26:44;5.50;99.90
1049;DHT22;513;51.444;7.196;2022-11-20T12:29:19;5.50;99.90
1049;DHT22;513;51.444;7.196;2022-11-20T12:31:59;5.00;99.90
1049;DHT22;513;51.444;7.196;2022-11-20T12:34:43;5.00;99.90
1049;DHT22;513;51.444;7.196;2022-11-20T12:37:19;4.60;99.90
1049;DHT22;513;51.444;7.196;2022-11-20T12:39:50;4.70;1.00
1049;DHT22;513;51.444;7.196;2022-11-20T12:45:56;4.80;1.00
1049;DHT22;513;51.444;7.196;2022-11-20T12:48:42;4.70;1.00
1049;DHT22;513;51.444;7.196;2022-11-20T12:51:21;4.70;1.00
1049;DHT22;513;51.444;7.196;2022-11-20T12:54:00;4.60;1.00
1049;DHT22;513;51.444;7.196;2022-11-20T12:56:37;4.60;1.00
1049;DHT22;513;51.444;7.196;2022-11-20T12:59:21;4.60;1.00
1049;DHT22;513;51.444;7.196;2022-11-20T13:01:53;4.80;1.00
1049;DHT22;513;51.444;7.196;2022-11-20T13:04:44;4.70;1.00
1049;DHT22;513;51.444;7.196;2022-11-20T13:07:15;4.90;1.00
1049;DHT22;513;51.444;7.196;2022-11-20T13:09:45;5.00;1.00
1049;DHT22;513;51.444;7.196;2022-11-20T13:12:17;4.90;1.00
1049;DHT22;513;51.444;7.196;2022-11-20T13:14:50;5.00;1.00
1049;DHT22;513;51.444;7.196;2022-11-20T13:17:23;5.10;1.00
1049;DHT22;513;51.444;7.196;2022-11-20T13:19:53;5.00;1.00
1049;DHT22;513;51.444;7.196;2022-11-20T13:22:28;5.00;1.00
1049;DHT22;513;51.444;7.196;2022-11-20T13:24:56;5.10;1.00
1049;DHT22;513;51.444;7.196;2022-11-20T13:27:23;4.80;1.00
1049;DHT22;513;51.444;7.196;2022-11-20T13:30:10;5.00;1.00
1049;DHT22;513;51.444;7.196;2022-11-20T13:32:48;4.90;1.00
1049;DHT22;513;51.444;7.196;2022-11-20T13:35:25;5.00;1.00
1049;DHT22;513;51.444;7.196;2022-11-20T13:38:00;4.90;1.00
1049;DHT22;513;51.444;7.196;2022-11-20T13:40:29;4.90;1.00
1049;DHT22;513;51.444;7.196;2022-11-20T13:43:02;4.90;1.00
1049;DHT22;513;51.444;7.196;2022-11-20T13:45:31;5.00;1.00
1049;DHT22;513;51.444;7.196;2022-11-20T13:48:03;5.10;1.00
1049;DHT22;513;51.444;7.196;2022-11-20T13:50:40;5.20;1.00
1049;DHT22;513;51.444;7.196;2022-11-20T13:53:21;5.10;1.00
1049;DHT22;513;51.444;7.196;2022-11-20T13:55:54;5.10;1.00
1049;DHT22;513;51.444;7.196;2022-11-20T13:58:36;5.10;1.00
1049;DHT22;513;51.444;7.196;2022-11-20T14:01:10;5.00;1.00
1049;DHT22;513;51.444;7.196;2022-11-20T14:03:38;5.10;1.00
1049;DHT22;513;51.444;7.196;2022-11-20T14:06:11;4.90;1.00
1049;DHT22;513;51.444;7.196;2022-11-20T14:08:42;5.00;1.00
1049;DHT22;513;51.444;7.196;2022-11-20T14:11:16;5.10;1.00
1049;DHT22;513;51.444;7.196;2022-11-20T14:13:58;5.10;1.00
1049;DHT22;513;51.444;7.196;2022-11-20T14:16:27;5.00;1.00
1049;DHT22;513;51.444;7.196;2022-11-20T14:18:55;4.90;1.00
1049;DHT22;513;51.444;7.196;2022-11-20T14:21:26;4.80;1.00
1049;DHT22;513;51.444;7.196;2022-11-20T14:24:02;4.40;1.00
1049;DHT22;513;51.444;7.196;2022-11-20T14:26:31;4.30;1.00
1049;DHT22;513;51.444;7.196;2022-11-20T14:28:58;4.50;1.00
1049;DHT22;513;51.444;7.196;2022-11-20T14:31:26;4.60;1.00
1049;DHT22;513;51.444;7.196;2022-11-20T14:33:54;4.80;1.00
1049;DHT22;513;51.444;7.196;2022-11-20T14:36:24;4.80;1.00
1049;DHT22;513;51.444;7.196;2022-11-20T14:38:52;4.90;1.00
1049;DHT22;513;51.444;7.196;2022-11-20T14:41:21;4.90;1.00
1049;DHT22;513;51.444;7.196;2022-11-20T14:43:53;4.80;1.00
1049;DHT22;513;51.444;7.196;2022-11-20T14:46:21;4.90;1.00
1049;DHT22;513;51.444;7.196;2022-11-20T14:48:50;4.90;1.00
1049;DHT22;513;51.444;7.196;2022-11-20T14:51:27;4.90;1.00
1049;DHT22;513;51.444;7.196;2022-11-20T14:53:54;4.80;10.90
1049;DHT22;513;51.444;7.196;2022-11-20T14:56:22;4.40;27.50
1049;DHT22;513;51.444;7.196;2022-11-20T14:58:57;4.50;52.20
1049;DHT22;513;51.444;7.196;2022-11-20T15:01:28;4.50;59.10
1049;DHT22;513;51.444;7.196;2022-11-20T15:04:00;4.50;56.90
1049;DHT22;513;51.444;7.196;2022-11-20T15:06:28;4.40;69.80
1049;DHT22;513;51.444;7.196;2022-11-20T15:08:56;4.30;90.80
1049;DHT22;513;51.444;7.196;2022-11-20T15:11:28;4.40;93.80
1049;DHT22;513;51.444;7.196;2022-11-20T15:13:59;4.40;93.60
1049;DHT22;513;51.444;7.196;2022-11-20T15:16:28;4.40;96.70
1049;DHT22;513;51.444;7.196;2022-11-20T15:18:54;4.40;99.90
1049;DHT22;513;51.444;7.196;2022-11-20T15:21:21;4.40;95.20
1049;DHT22;513;51.444;7.196;2022-11-20T15:23:48;4.40;99.20
1049;DHT22;513;51.444;7.196;2022-11-20T15:26:26;4.40;97.50
1049;DHT22;513;51.444;7.196;2022-11-20T15:28:53;4.40;97.40
1049;DHT22;513;51.444;7.196;2022-11-20T15:31:23;4.50;96.30
1049;DHT22;513;51.444;7.196;2022-11-20T15:33:50;4.40;92.40
1049;DHT22;513;51.444;7.196;2022-11-20T15:36:17;4.10;99.90
1049;DHT22;513;51.444;7.196;2022-11-20T15:38:44;4.20;99.90
1049;DHT22;513;51.444;7.196;2022-11-20T15:41:10;4.00;99.90
1049;DHT22;513;51.444;7.196;2022-11-20T15:43:37;4.20;99.90
1049;DHT22;513;51.444;7.196;2022-11-20T15:46:08;4.10;99.90
1049;DHT22;513;51.444;7.196;2022-11-20T15:48:39;4.20;99.90
1049;DHT22;513;51.444;7.196;2022-11-20T15:51:15;4.20;99.90
1049;DHT22;513;51.444;7.196;2022-11-20T15:53:44;4.10;99.90
1049;DHT22;513;51.444;7.196;2022-11-20T15:56:12;4.20;99.90
1049;DHT22;513;51.444;7.196;2022-11-20T15:58:39;4.20;99.90
1049;DHT22;513;51.444;7.196;2022-11-20T16:01:10;4.10;99.90
1049;DHT22;513;51.444;7.196;2022-11-20T16:03:38;4.10;99.90
1049;DHT22;513;51.444;7.196;2022-11-20T16:06:04;4.10;99.90
1049;DHT22;513;51.444;7.196;2022-11-20T16:08:31;3.90;99.90
1049;DHT22;513;51.444;7.196;2022-11-20T16:10:58;4.00;99.90
1049;DHT22;513;51.444;7.196;2022-11-20T16:13:24;4.00;99.90
1049;DHT22;513;51.444;7.196;2022-11-20T16:16:19;4.10;99.90
1049;DHT22;513;51.444;7.196;2022-11-20T16:18:47;4.10;99.90
1049;DHT22;513;51.444;7.196;2022-11-20T16:21:14;4.20;99.90
1049;DHT22;513;51.444;7.196;2022-11-20T16:23:41;4.20;99.90
1049;DHT22;513;51.444;7.196;2022-11-20T16:26:12;4.10;99.90
1049;DHT22;513;51.444;7.196;2022-11-20T16:28:39;4.20;99.90
1049;DHT22;513;51.444;7.196;2022-11-20T16:31:10;4.30;99.90
1049;DHT22;513;51.444;7.196;2022-11-20T16:33:37;4.30;99.90
1049;DHT22;513;51.444;7.196;2022-11-20T16:36:13;4.30;99.90
1049;DHT22;513;51.444;7.196;2022-11-20T16:38:40;4.40;99.90
1049;DHT22;513;51.444;7.196;2022-11-20T16:41:08;4.50;99.90
1049;DHT22;513;51.444;7.196;2022-11-20T16:43:44;4.50;99.90
1049;DHT22;513;51.444;7.196;2022-11-20T16:46:12;4.60;99.90
1049;DHT22;513;51.444;7.196;2022-11-20T16:48:39;4.70;99.90
1049;DHT22;513;51.444;7.196;2022-11-20T16:51:08;4.60;99.90
1049;DHT22;513;51.444;7.196;2022-11-20T16:53:37;4.60;99.90
1049;DHT22;513;51.444;7.196;2022-11-20T16:56:11;4.60;99.90
1049;DHT22;513;51.444;7.196;2022-11-20T16:58:40;4.70;99.90
1049;DHT22;513;51.444;7.196;2022-11-20T17:01:07;4.70;99.90
1049;DHT22;513;51.444;7.196;2022-11-20T17:03:42;4.80;99.90